sensor_id;sensor_type;location;lat;lon;timestamp;temperature;humidity
14142;DHT22;7151;52.246;4.820;2023-07-20T00:02:15;23.00;61.70
14142;DHT22;7151;52.246;4.820;2023-07-20T00:04:40;23.00;61.80
14142;DHT22;7151;52.246;4.820;2023-07-20T00:07:06;22.90;61.70
14142;DHT22;7151;52.246;4.820;2023-07-20T00:09:31;22.90;61.80
14142;DHT22;7151;52.246;4.820;2023-07-20T00:11:57;22.90;61.80
14142;DHT22;7151;52.246;4.820;2023-07-20T00:14:25;22.90;61.90
14142;DHT22;7151;52.246;4.820;2023-07-20T00:16:51;22.80;62.00
14142;DHT22;7151;52.246;4.820;2023-07-20T00:19:25;22.80;62.00
14142;DHT22;7151;52.246;4.820;2023-07-20T00:21:52;22.80;62.00
14142;DHT22;7151;52.246;4.820;2023-07-20T00:24:18;22.70;62.00
14142;DHT22;7151;52.246;4.820;2023-07-20T00:26:44;22.70;62.10
14142;DHT22;7151;52.246;4.820;2023-07-20T00:29:10;22.60;62.20
14142;DHT22;7151;52.246;4.820;2023-07-20T00:31:36;22.60;62.30
14142;DHT22;7151;52.246;4.820;2023-07-20T00:34:03;22.60;62.40
14142;DHT22;7151;52.246;4.820;2023-07-20T00:36:29;22.60;62.50
14142;DHT22;7151;52.246;4.820;2023-07-20T00:38:54;22.50;62.50
14142;DHT22;7151;52.246;4.820;2023-07-20T00:41:20;22.50;62.60
14142;DHT22;7151;52.246;4.820;2023-07-20T00:43:46;22.40;62.70
14142;DHT22;7151;52.246;4.820;2023-07-20T00:46:12;22.40;62.80
14142;DHT22;7151;52.246;4.820;2023-07-20T00:48:37;22.40;62.90
14142;DHT22;7151;52.246;4.820;2023-07-20T00:51:04;22.40;62.90
14142;DHT22;7151;52.246;4.820;2023-07-20T00:53:30;22.30;63.00
14142;DHT22;7151;52.246;4.820;2023-07-20T00:55:55;22.30;63.00
14142;DHT22;7151;52.246;4.820;2023-07-20T00:58:21;22.30;63.10
14142;DHT22;7151;52.246;4.820;2023-07-20T01:00:47;22.20;63.10
14142;DHT22;7151;52.246;4.820;2023-07-20T01:03:13;22.20;63.20
14142;DHT22;7151;52.246;4.820;2023-07-20T01:05:59;22.20;64.00
14142;DHT22;7151;52.246;4.820;2023-07-20T01:08:43;22.10;63.40
14142;DHT22;7151;52.246;4.820;2023-07-20T01:14:31;22.10;63.40
14142;DHT22;7151;52.246;4.820;2023-07-20T01:16:58;22.00;64.00
14142;DHT22;7151;52.246;4.820;2023-07-20T01:19:23;22.00;63.50
14142;DHT22;7151;52.246;4.820;2023-07-20T01:21:55;22.00;63.60
14142;DHT22;7151;52.246;4.820;2023-07-20T01:30:14;21.80;63.90
14142;DHT22;7151;52.246;4.820;2023-07-20T01:32:42;21.80;63.90
14142;DHT22;7151;52.246;4.820;2023-07-20T01:35:10;21.80;64.00
14142;DHT22;7151;52.246;4.820;2023-07-20T01:37:37;21.80;64.10
14142;DHT22;7151;52.246;4.820;2023-07-20T01:40:04;21.70;64.10
14142;DHT22;7151;52.246;4.820;2023-07-20T01:42:29;21.70;65.00
14142;DHT22;7151;52.246;4.820;2023-07-20T01:44:55;21.70;64.30
14142;DHT22;7151;52.246;4.820;2023-07-20T01:47:21;21.60;64.30
14142;DHT22;7151;52.246;4.820;2023-07-20T01:49:46;21.60;64.40
14142;DHT22;7151;52.246;4.820;2023-07-20T01:52:12;21.60;64.40
14142;DHT22;7151;52.246;4.820;2023-07-20T01:54:37;21.60;64.50
14142;DHT22;7151;52.246;4.820;2023-07-20T01:57:03;21.60;64.50
14142;DHT22;7151;52.246;4.820;2023-07-20T01:59:29;21.60;64.60
14142;DHT22;7151;52.246;4.820;2023-07-20T02:01:55;21.50;64.60
14142;DHT22;7151;52.246;4.820;2023-07-20T02:04:20;21.50;64.60
14142;DHT22;7151;52.246;4.820;2023-07-20T02:06:46;21.50;64.70
14142;DHT22;7151;52.246;4.820;2023-07-20T02:09:11;21.50;64.70
14142;DHT22;7151;52.246;4.820;2023-07-20T02:11:37;21.40;64.80
14142;DHT22;7151;52.246;4.820;2023-07-20T02:14:02;21.40;64.90
14142;DHT22;7151;52.246;4.820;2023-07-20T02:16:28;21.40;64.90
14142;DHT22;7151;52.246;4.820;2023-07-20T02:18:53;21.40;64.90
14142;DHT22;7151;52.246;4.820;2023-07-20T02:21:22;21.40;65.00
14142;DHT22;7151;52.246;4.820;2023-07-20T02:23:48;21.30;65.00
14142;DHT22;7151;52.246;4.820;2023-07-20T02:26:14;21.30;65.10
14142;DHT22;7151;52.246;4.820;2023-07-20T02:28:40;21.30;65.10
14142;DHT22;7151;52.246;4.820;2023-07-20T02:31:06;21.30;65.20
14142;DHT22;7151;52.246;4.820;2023-07-20T02:33:32;21.20;65.10
14142;DHT22;7151;52.246;4.820;2023-07-20T02:35:58;21.20;65.20
14142;DHT22;7151;52.246;4.820;2023-07-20T02:38:23;21.20;65.20
14142;DHT22;7151;52.246;4.820;2023-07-20T02:40:50;21.10;65.20
14142;DHT22;7151;52.246;4.820;2023-07-20T02:43:15;21.20;65.30
14142;DHT22;7151;52.246;4.820;2023-07-20T02:45:41;21.10;65.30
14142;DHT22;7151;52.246;4.820;2023-07-20T02:48:09;21.10;65.30
14142;DHT22;7151;52.246;4.820;2023-07-20T02:50:35;21.10;65.30
14142;DHT22;7151;52.246;4.820;2023-07-20T02:53:01;21.10;66.10
14142;DHT22;7151;52.246;4.820;2023-07-20T02:55:27;21.00;65.30
14142;DHT22;7151;52.246;4.820;2023-07-20T02:57:53;21.00;65.50
14142;DHT22;7151;52.246;4.820;2023-07-20T03:00:18;21.00;65.50
14142;DHT22;7151;52.246;4.820;2023-07-20T03:02:45;21.00;65.60
14142;DHT22;7151;52.246;4.820;2023-07-20T03:05:18;21.00;65.70
14142;DHT22;7151;52.246;4.820;2023-07-20T03:07:43;20.90;65.60
14142;DHT22;7151;52.246;4.820;2023-07-20T03:10:10;20.90;65.60
14142;DHT22;7151;52.246;4.820;2023-07-20T03:12:36;20.90;65.70
14142;DHT22;7151;52.246;4.820;2023-07-20T03:15:02;20.80;65.70
14142;DHT22;7151;52.246;4.820;2023-07-20T03:17:28;20.80;65.80
14142;DHT22;7151;52.246;4.820;2023-07-20T03:19:54;20.80;65.90
14142;DHT22;7151;52.246;4.820;2023-07-20T03:22:19;20.80;66.00
14142;DHT22;7151;52.246;4.820;2023-07-20T03:24:46;20.80;66.00
14142;DHT22;7151;52.246;4.820;2023-07-20T03:27:12;20.70;66.00
14142;DHT22;7151;52.246;4.820;2023-07-20T03:29:38;20.70;66.00
14142;DHT22;7151;52.246;4.820;2023-07-20T03:32:04;20.70;66.00
14142;DHT22;7151;52.246;4.820;2023-07-20T03:34:29;20.70;66.00
14142;DHT22;7151;52.246;4.820;2023-07-20T03:36:55;20.70;66.00
14142;DHT22;7151;52.246;4.820;2023-07-20T03:39:22;20.70;66.10
14142;DHT22;7151;52.246;4.820;2023-07-20T03:41:48;20.70;66.20
14142;DHT22;7151;52.246;4.820;2023-07-20T03:44:13;20.60;66.20
14142;DHT22;7151;52.246;4.820;2023-07-20T03:46:39;20.60;66.20
14142;DHT22;7151;52.246;4.820;2023-07-20T03:49:05;20.60;66.30
14142;DHT22;7151;52.246;4.820;2023-07-20T03:51:31;20.60;66.40
14142;DHT22;7151;52.246;4.820;2023-07-20T03:53:57;20.60;66.50
14142;DHT22;7151;52.246;4.820;2023-07-20T03:56:23;20.50;66.50
14142;DHT22;7151;52.246;4.820;2023-07-20T03:58:49;20.50;66.50
14142;DHT22;7151;52.246;4.820;2023-07-20T04:01:15;20.50;66.60
14142;DHT22;7151;52.246;4.820;2023-07-20T04:03:42;20.50;66.70
14142;DHT22;7151;52.246;4.820;2023-07-20T04:06:08;20.50;66.80
14142;DHT22;7151;52.246;4.820;2023-07-20T04:08:35;20.50;66.80
14142;DHT22;7151;52.246;4.820;2023-07-20T04:11:04;20.50;66.90
14142;DHT22;7151;52.246;4.820;2023-07-20T04:13:30;20.40;66.90
14142;DHT22;7151;52.246;4.820;2023-07-20T04:15:58;20.40;67.00
14142;DHT22;7151;52.246;4.820;2023-07-20T04:18:24;20.40;67.10
14142;DHT22;7151;52.246;4.820;2023-07-20T04:20:50;20.40;67.20
14142;DHT22;7151;52.246;4.820;2023-07-20T04:23:15;20.40;67.20
14142;DHT22;7151;52.246;4.820;2023-07-20T04:25:42;20.40;67.40
14142;DHT22;7151;52.246;4.820;2023-07-20T04:28:07;20.40;67.40
14142;DHT22;7151;52.246;4.820;2023-07-20T04:30:35;20.30;67.50
14142;DHT22;7151;52.246;4.820;2023-07-20T04:33:01;20.30;67.50
14142;DHT22;7151;52.246;4.820;2023-07-20T04:35:51;20.30;67.60
14142;DHT22;7151;52.246;4.820;2023-07-20T04:38:18;20.30;67.80
14142;DHT22;7151;52.246;4.820;2023-07-20T04:40:48;20.30;67.80
14142;DHT22;7151;52.246;4.820;2023-07-20T04:43:16;20.30;67.90
14142;DHT22;7151;52.246;4.820;2023-07-20T04:45:41;20.30;68.00
14142;DHT22;7151;52.246;4.820;2023-07-20T04:48:10;20.30;68.10
14142;DHT22;7151;52.246;4.820;2023-07-20T04:50:37;20.30;68.20
14142;DHT22;7151;52.246;4.820;2023-07-20T04:53:02;20.30;68.30
14142;DHT22;7151;52.246;4.820;2023-07-20T04:55:28;20.30;68.40
14142;DHT22;7151;52.246;4.820;2023-07-20T04:57:54;20.30;68.50
14142;DHT22;7151;52.246;4.820;2023-07-20T05:00:20;20.30;68.50
14142;DHT22;7151;52.246;4.820;2023-07-20T05:02:47;20.30;68.60
14142;DHT22;7151;52.246;4.820;2023-07-20T05:05:14;20.30;68.80
14142;DHT22;7151;52.246;4.820;2023-07-20T05:07:40;20.30;68.80
14142;DHT22;7151;52.246;4.820;2023-07-20T05:10:06;20.30;69.00
14142;DHT22;7151;52.246;4.820;2023-07-20T05:12:32;20.30;69.00
14142;DHT22;7151;52.246;4.820;2023-07-20T05:14:58;20.40;69.20
14142;DHT22;7151;52.246;4.820;2023-07-20T05:17:23;20.40;69.30
14142;DHT22;7151;52.246;4.820;2023-07-20T05:19:50;20.40;69.40
14142;DHT22;7151;52.246;4.820;2023-07-20T05:22:16;20.40;69.50
14142;DHT22;7151;52.246;4.820;2023-07-20T05:24:41;20.40;69.50
14142;DHT22;7151;52.246;4.820;2023-07-20T05:27:07;20.40;69.50
14142;DHT22;7151;52.246;4.820;2023-07-20T05:29:33;20.40;69.50
14142;DHT22;7151;52.246;4.820;2023-07-20T05:31:58;20.40;69.50
14142;DHT22;7151;52.246;4.820;2023-07-20T05:34:24;20.40;69.50
14142;DHT22;7151;52.246;4.820;2023-07-20T05:36:49;20.50;69.50
14142;DHT22;7151;52.246;4.820;2023-07-20T05:39:17;20.50;69.50
14142;DHT22;7151;52.246;4.820;2023-07-20T05:41:43;20.50;69.50
14142;DHT22;7151;52.246;4.820;2023-07-20T05:44:08;20.60;69.50
14142;DHT22;7151;52.246;4.820;2023-07-20T05:46:34;20.60;69.50
14142;DHT22;7151;52.246;4.820;2023-07-20T05:49:00;20.60;69.30
14142;DHT22;7151;52.246;4.820;2023-07-20T05:51:26;20.60;69.30
14142;DHT22;7151;52.246;4.820;2023-07-20T05:53:51;20.60;69.10
14142;DHT22;7151;52.246;4.820;2023-07-20T05:56:17;20.60;68.90
14142;DHT22;7151;52.246;4.820;2023-07-20T05:58:42;20.70;68.90
14142;DHT22;7151;52.246;4.820;2023-07-20T06:01:08;20.70;68.70
14142;DHT22;7151;52.246;4.820;2023-07-20T06:03:34;20.80;68.70
14142;DHT22;7151;52.246;4.820;2023-07-20T06:06:03;20.70;68.50
14142;DHT22;7151;52.246;4.820;2023-07-20T06:08:30;20.80;68.50
14142;DHT22;7151;52.246;4.820;2023-07-20T06:10:56;20.80;68.40
14142;DHT22;7151;52.246;4.820;2023-07-20T06:13:21;20.80;68.30
14142;DHT22;7151;52.246;4.820;2023-07-20T06:15:47;20.80;68.10
14142;DHT22;7151;52.246;4.820;2023-07-20T06:18:13;20.90;68.00
14142;DHT22;7151;52.246;4.820;2023-07-20T06:20:39;20.90;67.70
14142;DHT22;7151;52.246;4.820;2023-07-20T06:23:05;20.90;67.50
14142;DHT22;7151;52.246;4.820;2023-07-20T06:25:31;20.90;67.40
14142;DHT22;7151;52.246;4.820;2023-07-20T06:27:56;21.00;67.40
14142;DHT22;7151;52.246;4.820;2023-07-20T06:30:22;21.00;67.30
14142;DHT22;7151;52.246;4.820;2023-07-20T06:32:48;21.00;67.10
14142;DHT22;7151;52.246;4.820;2023-07-20T06:35:15;21.00;66.90
14142;DHT22;7151;52.246;4.820;2023-07-20T06:37:42;21.10;66.70
14142;DHT22;7151;52.246;4.820;2023-07-20T06:40:07;21.10;66.50
14142;DHT22;7151;52.246;4.820;2023-07-20T06:42:34;21.10;66.30
14142;DHT22;7151;52.246;4.820;2023-07-20T06:45:00;21.10;66.30
14142;DHT22;7151;52.246;4.820;2023-07-20T06:47:25;21.20;66.30
14142;DHT22;7151;52.246;4.820;2023-07-20T06:49:51;21.20;66.20
14142;DHT22;7151;52.246;4.820;2023-07-20T06:52:17;21.30;66.10
14142;DHT22;7151;52.246;4.820;2023-07-20T06:54:42;21.30;65.90
14142;DHT22;7151;52.246;4.820;2023-07-20T06:57:08;21.30;65.80
14142;DHT22;7151;52.246;4.820;2023-07-20T06:59:33;21.30;65.80
14142;DHT22;7151;52.246;4.820;2023-07-20T07:01:59;21.40;65.80
14142;DHT22;7151;52.246;4.820;2023-07-20T07:04:25;21.40;65.60
14142;DHT22;7151;52.246;4.820;2023-07-20T07:06:50;21.40;65.50
14142;DHT22;7151;52.246;4.820;2023-07-20T07:09:16;21.40;65.30
14142;DHT22;7151;52.246;4.820;2023-07-20T07:11:41;21.40;65.10
14142;DHT22;7151;52.246;4.820;2023-07-20T07:14:07;21.50;65.00
14142;DHT22;7151;52.246;4.820;2023-07-20T07:16:32;21.50;64.90
14142;DHT22;7151;52.246;4.820;2023-07-20T07:18:58;21.50;64.90
14142;DHT22;7151;52.246;4.820;2023-07-20T07:21:24;21.50;64.70
14142;DHT22;7151;52.246;4.820;2023-07-20T07:23:51;21.60;64.40
14142;DHT22;7151;52.246;4.820;2023-07-20T07:26:18;21.60;64.10
14142;DHT22;7151;52.246;4.820;2023-07-20T07:28:44;21.60;64.00
14142;DHT22;7151;52.246;4.820;2023-07-20T07:31:10;21.70;64.00
14142;DHT22;7151;52.246;4.820;2023-07-20T07:33:36;21.70;63.90
14142;DHT22;7151;52.246;4.820;2023-07-20T07:36:01;21.70;63.70
14142;DHT22;7151;52.246;4.820;2023-07-20T07:38:27;21.80;63.70
14142;DHT22;7151;52.246;4.820;2023-07-20T07:40:54;21.80;63.50
14142;DHT22;7151;52.246;4.820;2023-07-20T07:43:19;21.80;63.50
14142;DHT22;7151;52.246;4.820;2023-07-20T07:45:45;21.90;63.30
14142;DHT22;7151;52.246;4.820;2023-07-20T07:48:10;21.90;62.80
14142;DHT22;7151;52.246;4.820;2023-07-20T07:50:38;21.90;62.50
14142;DHT22;7151;52.246;4.820;2023-07-20T07:53:05;22.00;62.50
14142;DHT22;7151;52.246;4.820;2023-07-20T07:55:31;22.00;62.60
14142;DHT22;7151;52.246;4.820;2023-07-20T07:57:56;22.00;62.40
14142;DHT22;7151;52.246;4.820;2023-07-20T08:00:22;22.10;62.30
14142;DHT22;7151;52.246;4.820;2023-07-20T08:02:50;22.10;61.90
14142;DHT22;7151;52.246;4.820;2023-07-20T08:05:16;22.20;61.70
14142;DHT22;7151;52.246;4.820;2023-07-20T08:07:42;22.20;61.50
14142;DHT22;7151;52.246;4.820;2023-07-20T08:10:09;22.20;61.00
14142;DHT22;7151;52.246;4.820;2023-07-20T08:12:35;22.30;60.90
14142;DHT22;7151;52.246;4.820;2023-07-20T08:15:01;22.30;60.90
14142;DHT22;7151;52.246;4.820;2023-07-20T08:17:26;22.30;60.50
14142;DHT22;7151;52.246;4.820;2023-07-20T08:19:52;22.30;60.30
14142;DHT22;7151;52.246;4.820;2023-07-20T08:22:17;22.20;60.00
14142;DHT22;7151;52.246;4.820;2023-07-20T08:24:43;22.20;59.80
14142;DHT22;7151;52.246;4.820;2023-07-20T08:27:09;22.30;59.60
14142;DHT22;7151;52.246;4.820;2023-07-20T08:29:36;22.30;59.40
14142;DHT22;7151;52.246;4.820;2023-07-20T08:32:02;22.30;59.20
14142;DHT22;7151;52.246;4.820;2023-07-20T08:34:29;22.30;59.20
14142;DHT22;7151;52.246;4.820;2023-07-20T08:36:55;22.40;59.40
14142;DHT22;7151;52.246;4.820;2023-07-20T08:39:21;22.40;59.50
14142;DHT22;7151;52.246;4.820;2023-07-20T08:41:48;22.50;59.60
14142;DHT22;7151;52.246;4.820;2023-07-20T08:44:14;22.50;59.70
14142;DHT22;7151;52.246;4.820;2023-07-20T08:46:41;22.60;59.60
14142;DHT22;7151;52.246;4.820;2023-07-20T08:49:07;22.60;59.50
14142;DHT22;7151;52.246;4.820;2023-07-20T08:51:35;22.60;59.40
14142;DHT22;7151;52.246;4.820;2023-07-20T08:54:01;22.70;59.20
14142;DHT22;7151;52.246;4.820;2023-07-20T08:56:26;22.70;59.20
14142;DHT22;7151;52.246;4.820;2023-07-20T08:58:53;22.70;58.90
14142;DHT22;7151;52.246;4.820;2023-07-20T09:01:19;22.70;58.80
14142;DHT22;7151;52.246;4.820;2023-07-20T09:03:45;22.80;58.80
14142;DHT22;7151;52.246;4.820;2023-07-20T09:06:12;22.80;58.70
14142;DHT22;7151;52.246;4.820;2023-07-20T09:08:39;22.90;58.50
14142;DHT22;7151;52.246;4.820;2023-07-20T09:11:04;22.90;58.10
14142;DHT22;7151;52.246;4.820;2023-07-20T09:13:32;23.00;58.00
14142;DHT22;7151;52.246;4.820;2023-07-20T09:15:58;23.10;57.90
14142;DHT22;7151;52.246;4.820;2023-07-20T09:18:29;23.10;57.90
14142;DHT22;7151;52.246;4.820;2023-07-20T09:21:05;23.20;57.60
14142;DHT22;7151;52.246;4.820;2023-07-20T09:23:35;23.30;57.50
14142;DHT22;7151;52.246;4.820;2023-07-20T09:26:13;23.30;58.00
14142;DHT22;7151;52.246;4.820;2023-07-20T09:28:53;23.40;57.20
14142;DHT22;7151;52.246;4.820;2023-07-20T09:31:21;23.50;57.30
14142;DHT22;7151;52.246;4.820;2023-07-20T09:33:48;23.60;57.50
14142;DHT22;7151;52.246;4.820;2023-07-20T09:36:15;23.70;57.40
14142;DHT22;7151;52.246;4.820;2023-07-20T09:38:44;23.70;57.40
14142;DHT22;7151;52.246;4.820;2023-07-20T09:41:13;23.70;57.40
14142;DHT22;7151;52.246;4.820;2023-07-20T09:43:40;23.80;57.40
14142;DHT22;7151;52.246;4.820;2023-07-20T09:46:06;23.80;57.50
14142;DHT22;7151;52.246;4.820;2023-07-20T09:48:32;23.80;57.40
14142;DHT22;7151;52.246;4.820;2023-07-20T09:50:58;23.80;57.20
14142;DHT22;7151;52.246;4.820;2023-07-20T09:53:25;23.90;57.40
14142;DHT22;7151;52.246;4.820;2023-07-20T09:55:52;23.90;57.40
14142;DHT22;7151;52.246;4.820;2023-07-20T09:58:18;24.00;57.30
14142;DHT22;7151;52.246;4.820;2023-07-20T10:00:46;24.00;57.00
14142;DHT22;7151;52.246;4.820;2023-07-20T10:03:18;24.10;56.90
14142;DHT22;7151;52.246;4.820;2023-07-20T10:05:49;24.10;56.90
14142;DHT22;7151;52.246;4.820;2023-07-20T10:08:18;24.20;56.60
14142;DHT22;7151;52.246;4.820;2023-07-20T10:10:44;24.30;56.40
14142;DHT22;7151;52.246;4.820;2023-07-20T10:13:18;24.30;56.00
14142;DHT22;7151;52.246;4.820;2023-07-20T10:15:47;24.40;55.70
14142;DHT22;7151;52.246;4.820;2023-07-20T10:20:59;24.50;55.20
14142;DHT22;7151;52.246;4.820;2023-07-20T10:23:27;24.70;55.40
14142;DHT22;7151;52.246;4.820;2023-07-20T10:25:53;24.60;55.40
14142;DHT22;7151;52.246;4.820;2023-07-20T10:28:19;24.70;55.30
14142;DHT22;7151;52.246;4.820;2023-07-20T10:30:45;24.70;55.20
14142;DHT22;7151;52.246;4.820;2023-07-20T10:33:12;24.70;55.10
14142;DHT22;7151;52.246;4.820;2023-07-20T10:36:00;24.80;54.90
14142;DHT22;7151;52.246;4.820;2023-07-20T10:41:03;24.90;54.60
14142;DHT22;7151;52.246;4.820;2023-07-20T10:43:29;24.90;54.10
14142;DHT22;7151;52.246;4.820;2023-07-20T10:45:57;24.90;54.00
14142;DHT22;7151;52.246;4.820;2023-07-20T10:48:24;24.90;53.90
14142;DHT22;7151;52.246;4.820;2023-07-20T10:51:11;25.00;53.80
14142;DHT22;7151;52.246;4.820;2023-07-20T10:53:38;25.00;53.20
14142;DHT22;7151;52.246;4.820;2023-07-20T10:56:14;25.00;53.30
14142;DHT22;7151;52.246;4.820;2023-07-20T10:58:41;25.10;52.60
14142;DHT22;7151;52.246;4.820;2023-07-20T11:01:13;25.10;52.60
14142;DHT22;7151;52.246;4.820;2023-07-20T11:03:39;25.10;52.50
14142;DHT22;7151;52.246;4.820;2023-07-20T11:11:31;25.30;53.30
14142;DHT22;7151;52.246;4.820;2023-07-20T11:14:01;25.40;52.60
14142;DHT22;7151;52.246;4.820;2023-07-20T11:19:04;25.50;52.10
14142;DHT22;7151;52.246;4.820;2023-07-20T11:21:37;25.50;52.10
14142;DHT22;7151;52.246;4.820;2023-07-20T11:24:05;25.60;51.40
14142;DHT22;7151;52.246;4.820;2023-07-20T11:26:39;25.60;51.20
14142;DHT22;7151;52.246;4.820;2023-07-20T11:29:05;25.70;51.20
14142;DHT22;7151;52.246;4.820;2023-07-20T11:31:35;25.70;51.20
14142;DHT22;7151;52.246;4.820;2023-07-20T11:34:01;25.80;51.30
14142;DHT22;7151;52.246;4.820;2023-07-20T11:36:26;25.80;51.20
14142;DHT22;7151;52.246;4.820;2023-07-20T11:38:52;25.90;50.90
14142;DHT22;7151;52.246;4.820;2023-07-20T11:41:19;25.90;50.70
14142;DHT22;7151;52.246;4.820;2023-07-20T11:43:45;26.00;50.90
14142;DHT22;7151;52.246;4.820;2023-07-20T11:46:11;26.10;51.00
14142;DHT22;7151;52.246;4.820;2023-07-20T11:48:36;26.10;51.00
14142;DHT22;7151;52.246;4.820;2023-07-20T11:51:02;26.20;50.80
14142;DHT22;7151;52.246;4.820;2023-07-20T11:53:28;26.30;50.60
14142;DHT22;7151;52.246;4.820;2023-07-20T11:55:54;26.40;50.40
14142;DHT22;7151;52.246;4.820;2023-07-20T11:58:20;26.50;50.30
14142;DHT22;7151;52.246;4.820;2023-07-20T12:00:47;26.50;50.10
14142;DHT22;7151;52.246;4.820;2023-07-20T12:03:13;26.60;50.00
14142;DHT22;7151;52.246;4.820;2023-07-20T12:05:39;26.60;49.60
14142;DHT22;7151;52.246;4.820;2023-07-20T12:08:05;26.70;49.40
14142;DHT22;7151;52.246;4.820;2023-07-20T12:10:31;26.80;49.70
14142;DHT22;7151;52.246;4.820;2023-07-20T12:13:03;26.80;49.60
14142;DHT22;7151;52.246;4.820;2023-07-20T12:15:32;26.90;49.10
14142;DHT22;7151;52.246;4.820;2023-07-20T12:17:59;27.00;49.00
14142;DHT22;7151;52.246;4.820;2023-07-20T12:20:30;27.10;48.90
14142;DHT22;7151;52.246;4.820;2023-07-20T12:22:59;27.10;48.80
14142;DHT22;7151;52.246;4.820;2023-07-20T12:28:15;27.30;48.40
14142;DHT22;7151;52.246;4.820;2023-07-20T12:30:43;27.40;48.40
14142;DHT22;7151;52.246;4.820;2023-07-20T12:33:09;27.40;48.30
14142;DHT22;7151;52.246;4.820;2023-07-20T12:35:35;27.50;48.10
14142;DHT22;7151;52.246;4.820;2023-07-20T12:38:01;27.50;48.00
14142;DHT22;7151;52.246;4.820;2023-07-20T12:40:27;27.60;47.90
14142;DHT22;7151;52.246;4.820;2023-07-20T12:42:52;27.60;47.80
14142;DHT22;7151;52.246;4.820;2023-07-20T12:45:18;27.70;47.70
14142;DHT22;7151;52.246;4.820;2023-07-20T12:47:44;27.70;47.70
14142;DHT22;7151;52.246;4.820;2023-07-20T12:50:12;27.90;47.90
14142;DHT22;7151;52.246;4.820;2023-07-20T12:52:39;27.80;47.60
14142;DHT22;7151;52.246;4.820;2023-07-20T12:55:06;27.90;47.60
14142;DHT22;7151;52.246;4.820;2023-07-20T12:57:37;28.00;47.60
14142;DHT22;7151;52.246;4.820;2023-07-20T13:00:04;28.10;47.70
14142;DHT22;7151;52.246;4.820;2023-07-20T13:02:31;28.10;47.40
14142;DHT22;7151;52.246;4.820;2023-07-20T13:04:57;28.20;47.00
14142;DHT22;7151;52.246;4.820;2023-07-20T13:07:33;28.30;46.50
14142;DHT22;7151;52.246;4.820;2023-07-20T13:10:00;28.40;46.20
14142;DHT22;7151;52.246;4.820;2023-07-20T13:12:30;28.40;46.10
14142;DHT22;7151;52.246;4.820;2023-07-20T13:14:56;28.50;45.70
14142;DHT22;7151;52.246;4.820;2023-07-20T13:17:25;28.60;45.60
14142;DHT22;7151;52.246;4.820;2023-07-20T13:19:50;28.70;45.60
14142;DHT22;7151;52.246;4.820;2023-07-20T13:22:16;28.70;45.60
14142;DHT22;7151;52.246;4.820;2023-07-20T13:24:44;28.80;45.40
14142;DHT22;7151;52.246;4.820;2023-07-20T13:27:09;28.80;44.90
14142;DHT22;7151;52.246;4.820;2023-07-20T13:29:35;28.90;44.70
14142;DHT22;7151;52.246;4.820;2023-07-20T13:32:01;28.90;44.70
14142;DHT22;7151;52.246;4.820;2023-07-20T13:34:28;29.00;44.40
14142;DHT22;7151;52.246;4.820;2023-07-20T13:36:53;29.00;44.30
14142;DHT22;7151;52.246;4.820;2023-07-20T13:39:19;29.10;44.40
14142;DHT22;7151;52.246;4.820;2023-07-20T13:41:45;29.10;44.30
14142;DHT22;7151;52.246;4.820;2023-07-20T13:44:10;29.20;44.30
14142;DHT22;7151;52.246;4.820;2023-07-20T13:46:36;29.20;44.10
14142;DHT22;7151;52.246;4.820;2023-07-20T13:49:01;29.20;43.90
14142;DHT22;7151;52.246;4.820;2023-07-20T13:51:27;29.30;43.90
14142;DHT22;7151;52.246;4.820;2023-07-20T13:53:52;29.30;43.70
14142;DHT22;7151;52.246;4.820;2023-07-20T13:56:18;29.40;44.10
14142;DHT22;7151;52.246;4.820;2023-07-20T13:58:43;29.40;43.30
14142;DHT22;7151;52.246;4.820;2023-07-20T14:01:09;29.40;43.20
14142;DHT22;7151;52.246;4.820;2023-07-20T14:03:35;29.50;43.20
14142;DHT22;7151;52.246;4.820;2023-07-20T14:06:00;29.50;42.90
14142;DHT22;7151;52.246;4.820;2023-07-20T14:08:26;29.50;42.80
14142;DHT22;7151;52.246;4.820;2023-07-20T14:10:52;29.50;42.80
14142;DHT22;7151;52.246;4.820;2023-07-20T14:13:17;29.50;42.60
14142;DHT22;7151;52.246;4.820;2023-07-20T14:15:43;29.40;42.50
14142;DHT22;7151;52.246;4.820;2023-07-20T14:18:08;29.40;42.60
14142;DHT22;7151;52.246;4.820;2023-07-20T14:20:34;29.40;42.60
14142;DHT22;7151;52.246;4.820;2023-07-20T14:23:00;29.30;42.60
14142;DHT22;7151;52.246;4.820;2023-07-20T14:25:26;29.30;42.50
14142;DHT22;7151;52.246;4.820;2023-07-20T14:27:51;29.30;42.50
14142;DHT22;7151;52.246;4.820;2023-07-20T14:30:17;29.20;42.60
14142;DHT22;7151;52.246;4.820;2023-07-20T14:32:43;29.20;42.50
14142;DHT22;7151;52.246;4.820;2023-07-20T14:35:09;29.20;42.30
14142;DHT22;7151;52.246;4.820;2023-07-20T14:37:34;29.20;42.20
14142;DHT22;7151;52.246;4.820;2023-07-20T14:40:00;29.10;42.10
14142;DHT22;7151;52.246;4.820;2023-07-20T14:42:26;29.10;42.10
14142;DHT22;7151;52.246;4.820;2023-07-20T14:44:51;29.00;41.90
14142;DHT22;7151;52.246;4.820;2023-07-20T14:47:17;29.00;41.90
14142;DHT22;7151;52.246;4.820;2023-07-20T14:49:43;29.00;42.00
14142;DHT22;7151;52.246;4.820;2023-07-20T14:52:09;28.90;41.70
14142;DHT22;7151;52.246;4.820;2023-07-20T14:54:35;28.90;41.60
14142;DHT22;7151;52.246;4.820;2023-07-20T14:57:00;28.90;41.60
14142;DHT22;7151;52.246;4.820;2023-07-20T14:59:26;28.80;41.30
14142;DHT22;7151;52.246;4.820;2023-07-20T15:01:51;28.80;41.10
14142;DHT22;7151;52.246;4.820;2023-07-20T15:04:18;28.80;41.40
14142;DHT22;7151;52.246;4.820;2023-07-20T15:06:44;28.80;41.40
14142;DHT22;7151;52.246;4.820;2023-07-20T15:09:09;28.70;41.30
14142;DHT22;7151;52.246;4.820;2023-07-20T15:11:36;28.70;41.40
14142;DHT22;7151;52.246;4.820;2023-07-20T15:14:02;28.70;41.20
14142;DHT22;7151;52.246;4.820;2023-07-20T15:16:27;28.60;41.20
14142;DHT22;7151;52.246;4.820;2023-07-20T15:18:53;28.60;41.30
14142;DHT22;7151;52.246;4.820;2023-07-20T15:21:19;28.60;41.50
14142;DHT22;7151;52.246;4.820;2023-07-20T15:23:44;28.60;41.60
14142;DHT22;7151;52.246;4.820;2023-07-20T15:26:11;28.50;41.40
14142;DHT22;7151;52.246;4.820;2023-07-20T15:28:37;28.50;41.30
14142;DHT22;7151;52.246;4.820;2023-07-20T15:31:04;28.50;41.40
14142;DHT22;7151;52.246;4.820;2023-07-20T15:33:30;28.50;41.40
14142;DHT22;7151;52.246;4.820;2023-07-20T15:35:56;28.40;41.40
14142;DHT22;7151;52.246;4.820;2023-07-20T15:38:22;28.40;41.40
14142;DHT22;7151;52.246;4.820;2023-07-20T15:40:48;28.40;41.50
14142;DHT22;7151;52.246;4.820;2023-07-20T15:43:16;28.40;41.40
14142;DHT22;7151;52.246;4.820;2023-07-20T15:45:48;28.40;41.20
14142;DHT22;7151;52.246;4.820;2023-07-20T15:48:15;28.40;41.20
14142;DHT22;7151;52.246;4.820;2023-07-20T15:50:40;28.40;41.20
14142;DHT22;7151;52.246;4.820;2023-07-20T15:53:06;28.30;41.10
14142;DHT22;7151;52.246;4.820;2023-07-20T15:55:31;28.40;41.20
14142;DHT22;7151;52.246;4.820;2023-07-20T15:57:57;28.40;41.70
14142;DHT22;7151;52.246;4.820;2023-07-20T16:00:23;28.40;41.10
14142;DHT22;7151;52.246;4.820;2023-07-20T16:02:48;28.40;41.20
14142;DHT22;7151;52.246;4.820;2023-07-20T16:05:14;28.50;41.30
14142;DHT22;7151;52.246;4.820;2023-07-20T16:07:41;28.50;41.30